Pagrindinis puslapis
METAR-TAF:

METAR-TAF

Oro uostai :

Asahikawa-airbase, Japonija

platuma: 43-48N, ilguma: 142-22E, Aukštis: 115 m

Dabartinis oras

Ataskaita buvo paskelbta 1 valandą ir 59 minutes, ne 04:10 UTC
Vėjas 6 kt iš Šiaurės
Temperatūra 5°C
Drėgmė 75%
Slėgis 1014 hPa
Matomumas 10 km arba daugiau
Mažai debesys ne aukštis 1000 ft
Su prošvaistėmis ne aukštis 2000 ft
Su prošvaistėmis ne aukštis 20000 ft

METAR: RJCA 100410Z 35006KT 9999 FEW010 BKN020 BKN200 05/01 Q1014 RMK 1ST010 5CU020 6CI200 A2995

Laikas: 15:09 (06:09 UTC)


TAF: trūkstamas

Orai ataskaitas ir orų prognozės (METAR, TAF).

turimą stotys yra geltonos ir raudonos taškus žemėlapyje.

Perkelti pele per norėdami pamatyti stoties vardą.

Tada spustelėkite, norėdami matyti oro stebėjimo ir prognozės.

Norėdami pakeisti žemėlapį: spustelėkite ant žalios mygtukų su juodo kryžiaus žemyn,; žalią mygtuką su brūkšneliu, jei norite nutolinti; arba žalių rodyklių gretimoms žemėlapius.


METAR-TAF: